createdAt,value
2022-10-29T00:00:17.047Z,13.18
2022-10-29T00:02:44.118Z,13.12
2022-10-29T00:05:11.177Z,13.06
2022-10-29T00:07:38.293Z,13.02
2022-10-29T00:10:05.999Z,13.05
2022-10-29T00:12:33.229Z,12.99
2022-10-29T00:15:00.292Z,12.99
2022-10-29T00:17:27.357Z,12.87
2022-10-29T00:19:54.378Z,13.04
2022-10-29T00:22:21.584Z,13.02
2022-10-29T00:24:48.608Z,12.98
2022-10-29T00:27:15.678Z,12.87
2022-10-29T00:29:42.708Z,12.90
2022-10-29T00:32:10.066Z,12.37
2022-10-29T00:34:37.609Z,12.89
2022-10-29T00:37:05.370Z,12.54
2022-10-29T00:39:35.549Z,12.65
2022-10-29T00:42:02.544Z,12.83
2022-10-29T00:44:32.663Z,12.58
2022-10-29T00:47:28.305Z,12.69
2022-10-29T00:50:23.093Z,12.73
2022-10-29T00:52:52.076Z,12.82
2022-10-29T00:55:20.193Z,12.48
2022-10-29T00:57:52.442Z,12.87
2022-10-29T01:00:20.942Z,12.82
2022-10-29T01:02:48.331Z,12.89
2022-10-29T01:05:19.425Z,12.95
2022-10-29T01:07:47.234Z,12.87
2022-10-29T01:10:16.318Z,12.77
2022-10-29T01:12:52.067Z,12.82
2022-10-29T01:15:40.236Z,12.76
2022-10-29T01:18:20.266Z,12.69
2022-10-29T01:21:06.183Z,12.71
2022-10-29T01:24:08.573Z,12.69
2022-10-29T01:26:38.204Z,12.58
2022-10-29T01:29:23.789Z,12.58
2022-10-29T01:32:26.556Z,12.53
2022-10-29T01:34:56.626Z,12.55
2022-10-29T01:37:32.154Z,12.49
2022-10-29T01:40:11.694Z,12.45
2022-10-29T01:43:07.274Z,12.44
2022-10-29T01:45:42.094Z,12.35
2022-10-29T01:48:13.737Z,12.35
2022-10-29T01:50:45.451Z,12.08
2022-10-29T01:53:12.880Z,12.27
2022-10-29T01:55:39.953Z,12.24
2022-10-29T01:58:07.773Z,12.00
2022-10-29T02:00:51.109Z,12.26
2022-10-29T02:03:48.176Z,12.24
2022-10-29T02:06:47.200Z,12.26
2022-10-29T02:09:27.077Z,12.31
2022-10-29T02:12:17.658Z,12.36
2022-10-29T02:14:56.939Z,12.31
2022-10-29T02:17:24.873Z,12.24
2022-10-29T02:19:51.878Z,12.24
2022-10-29T02:22:18.850Z,11.72
2022-10-29T02:24:45.850Z,11.92
2022-10-29T02:27:12.874Z,12.12
2022-10-29T02:29:39.931Z,12.13
2022-10-29T02:32:06.893Z,12.12
2022-10-29T02:34:34.243Z,12.09
2022-10-29T02:37:01.320Z,11.75
2022-10-29T02:39:28.350Z,12.11
2022-10-29T02:41:55.404Z,12.13
2022-10-29T02:44:22.398Z,12.02
2022-10-29T02:46:49.432Z,11.55
2022-10-29T02:49:16.473Z,11.78
2022-10-29T02:51:43.520Z,12.05
2022-10-29T02:54:10.558Z,12.06
2022-10-29T02:56:37.568Z,12.07
2022-10-29T02:59:06.508Z,12.01
2022-10-29T03:01:36.294Z,11.88
2022-10-29T03:04:03.407Z,11.85
2022-10-29T03:06:30.392Z,11.96
2022-10-29T03:08:57.621Z,11.97
2022-10-29T03:11:24.612Z,12.05
2022-10-29T03:13:51.593Z,11.94
2022-10-29T03:16:18.594Z,11.94
2022-10-29T03:18:45.628Z,11.92
2022-10-29T03:21:12.681Z,11.78
2022-10-29T03:23:39.654Z,12.03
2022-10-29T03:26:06.797Z,12.01
2022-10-29T03:28:33.842Z,11.81
2022-10-29T03:31:00.867Z,11.89
2022-10-29T03:33:28.342Z,11.54
2022-10-29T03:35:57.620Z,11.95
2022-10-29T03:38:24.828Z,11.96
2022-10-29T03:40:52.043Z,11.88
2022-10-29T03:43:19.171Z,11.43
2022-10-29T03:45:57.578Z,11.66
2022-10-29T03:48:25.632Z,11.27
2022-10-29T03:50:57.750Z,11.55
2022-10-29T03:53:25.799Z,11.52
2022-10-29T03:55:54.439Z,11.51
2022-10-29T03:58:22.277Z,11.40
2022-10-29T04:00:56.440Z,11.42
2022-10-29T04:03:23.564Z,11.36
2022-10-29T04:05:50.677Z,11.29
2022-10-29T04:08:17.913Z,11.27
2022-10-29T04:10:50.750Z,11.20
2022-10-29T04:13:18.713Z,11.06
2022-10-29T04:15:45.986Z,11.06
2022-10-29T04:18:13.420Z,10.94
2022-10-29T04:21:08.741Z,11.30
2022-10-29T04:29:03.632Z,11.42
2022-10-29T04:31:30.785Z,11.25
2022-10-29T04:33:57.767Z,11.45
2022-10-29T04:36:24.765Z,11.39
2022-10-29T04:38:51.756Z,11.46
2022-10-29T04:41:18.814Z,11.49
2022-10-29T04:43:46.104Z,11.53
2022-10-29T04:46:13.155Z,11.55
2022-10-29T04:48:40.200Z,11.58
2022-10-29T04:51:07.178Z,11.58
2022-10-29T04:53:34.334Z,11.17
2022-10-29T04:56:03.415Z,11.52
2022-10-29T04:58:30.398Z,11.56
2022-10-29T05:01:02.505Z,11.62
2022-10-29T05:03:29.831Z,11.42
2022-10-29T05:05:57.086Z,11.56
2022-10-29T05:08:24.067Z,11.50
2022-10-29T05:10:51.086Z,11.59
2022-10-29T05:13:18.122Z,11.64
2022-10-29T05:15:53.213Z,11.53
2022-10-29T05:18:20.863Z,11.64
2022-10-29T05:20:47.988Z,11.29
2022-10-29T05:23:15.463Z,11.36
2022-10-29T05:25:42.436Z,11.30
2022-10-29T05:28:14.508Z,11.64
2022-10-29T05:30:41.794Z,11.64
2022-10-29T05:33:09.813Z,11.60
2022-10-29T05:35:37.037Z,11.65
2022-10-29T05:38:06.288Z,11.72
2022-10-29T05:40:33.370Z,11.32
2022-10-29T05:43:00.892Z,11.68
2022-10-29T05:45:28.259Z,11.56
2022-10-29T05:48:00.318Z,11.59
2022-10-29T05:50:28.106Z,11.58
2022-10-29T05:53:00.013Z,11.41
2022-10-29T05:55:28.451Z,11.72
2022-10-29T05:57:59.892Z,11.56
2022-10-29T06:00:29.349Z,11.78
2022-10-29T06:02:56.939Z,11.50
2022-10-29T06:05:24.259Z,11.37
2022-10-29T06:08:00.220Z,11.69
2022-10-29T06:10:29.182Z,11.37
2022-10-29T06:12:56.229Z,11.65
2022-10-29T06:15:23.510Z,11.60
2022-10-29T06:17:50.626Z,11.77
2022-10-29T06:20:20.875Z,11.77
2022-10-29T06:22:55.566Z,11.45
2022-10-29T06:25:22.800Z,11.72
2022-10-29T06:28:00.777Z,11.53
2022-10-29T06:30:29.149Z,11.91
2022-10-29T06:32:56.613Z,11.95
2022-10-29T06:35:23.956Z,12.00
2022-10-29T06:37:51.339Z,12.17
2022-10-29T06:40:18.504Z,12.17
2022-10-29T06:42:45.544Z,11.91
2022-10-29T06:45:12.735Z,12.27
2022-10-29T06:47:44.699Z,12.35
2022-10-29T06:50:13.307Z,12.17
2022-10-29T06:52:40.302Z,12.27
2022-10-29T06:55:08.436Z,12.28
2022-10-29T06:57:35.613Z,12.26
2022-10-29T07:00:07.336Z,11.86
2022-10-29T07:02:35.645Z,12.13
2022-10-29T07:05:02.668Z,12.32
2022-10-29T07:07:29.861Z,12.31
2022-10-29T07:09:58.131Z,12.31
2022-10-29T07:12:25.105Z,12.34
2022-10-29T07:14:52.087Z,12.55
2022-10-29T07:17:19.054Z,12.47
2022-10-29T07:19:46.084Z,12.61
2022-10-29T07:22:13.053Z,12.68
2022-10-29T07:24:40.181Z,12.71
2022-10-29T07:27:07.288Z,12.50
2022-10-29T07:29:35.157Z,12.68
2022-10-29T07:32:02.152Z,12.66
2022-10-29T07:34:29.326Z,12.68
2022-10-29T07:36:56.571Z,12.97
2022-10-29T07:39:23.792Z,13.14
2022-10-29T07:41:51.478Z,12.91
2022-10-29T07:44:20.064Z,13.03
2022-10-29T07:46:47.037Z,12.93
2022-10-29T07:49:14.007Z,13.20
2022-10-29T07:51:42.191Z,13.20
2022-10-29T07:54:14.436Z,13.00
2022-10-29T07:56:45.105Z,13.33
2022-10-29T07:59:15.608Z,13.46
2022-10-29T08:01:42.766Z,13.50
2022-10-29T08:04:10.116Z,13.44
2022-10-29T08:06:37.249Z,13.39
2022-10-29T08:09:04.406Z,13.66
2022-10-29T08:11:32.718Z,13.85
2022-10-29T08:13:59.969Z,13.92
2022-10-29T08:16:26.944Z,14.00
2022-10-29T08:18:53.913Z,14.06
2022-10-29T08:21:21.162Z,14.05
2022-10-29T08:23:48.188Z,14.07
2022-10-29T08:26:15.280Z,13.74
2022-10-29T08:28:42.903Z,13.92
2022-10-29T08:31:10.011Z,14.11
2022-10-29T08:33:36.993Z,14.08
2022-10-29T08:36:04.244Z,14.42
2022-10-29T08:38:31.220Z,14.62
2022-10-29T08:41:40.583Z,14.58
2022-10-29T08:44:43.519Z,14.69
2022-10-29T08:47:16.772Z,14.94
2022-10-29T08:50:01.228Z,14.88
2022-10-29T08:52:30.548Z,14.85
2022-10-29T08:55:12.727Z,14.96
2022-10-29T08:57:47.223Z,15.14
2022-10-29T09:00:18.276Z,15.26
2022-10-29T09:02:45.660Z,15.20
2022-10-29T09:05:19.251Z,15.44
2022-10-29T09:08:19.782Z,15.36
2022-10-29T09:10:55.613Z,15.45
2022-10-29T09:13:40.469Z,15.72
2022-10-29T09:16:17.454Z,15.82
2022-10-29T09:19:05.998Z,15.65
2022-10-29T09:21:54.403Z,15.96
2022-10-29T09:24:43.159Z,16.20
2022-10-29T09:27:47.354Z,16.25
2022-10-29T09:30:17.986Z,16.20
2022-10-29T09:32:56.619Z,16.09
2022-10-29T09:35:38.025Z,16.21
2022-10-29T09:38:18.788Z,16.08
2022-10-29T09:40:46.495Z,16.28
2022-10-29T09:43:18.636Z,16.41
2022-10-29T09:45:52.180Z,16.46
2022-10-29T09:48:29.137Z,16.53
2022-10-29T09:51:26.886Z,16.67
2022-10-29T09:53:55.208Z,16.74
2022-10-29T09:56:22.515Z,16.76
2022-10-29T09:58:56.012Z,16.68
2022-10-29T10:01:23.218Z,16.53
2022-10-29T10:03:58.317Z,16.54
2022-10-29T10:06:25.427Z,16.80
2022-10-29T10:09:04.880Z,17.08
2022-10-29T10:11:41.997Z,17.24
2022-10-29T10:14:19.349Z,17.37
2022-10-29T10:16:46.528Z,17.40
2022-10-29T10:19:23.815Z,17.23
2022-10-29T10:22:05.183Z,17.38
2022-10-29T10:24:36.814Z,17.32
2022-10-29T10:27:19.413Z,17.52
2022-10-29T10:30:04.401Z,17.67
2022-10-29T10:32:32.066Z,17.68
2022-10-29T10:34:59.073Z,18.05
2022-10-29T10:37:31.476Z,18.22
2022-10-29T10:40:04.496Z,18.39
2022-10-29T10:42:37.207Z,18.52
2022-10-29T10:45:17.731Z,18.66
2022-10-29T10:47:50.727Z,18.86
2022-10-29T10:50:32.178Z,19.10
2022-10-29T10:53:03.392Z,19.39
2022-10-29T10:55:32.852Z,19.45
2022-10-29T10:58:19.364Z,19.51
2022-10-29T11:01:06.198Z,19.78
2022-10-29T11:03:45.131Z,19.81
2022-10-29T11:06:20.581Z,19.85
2022-10-29T11:09:38.824Z,20.26
2022-10-29T11:12:27.934Z,20.36
2022-10-29T11:15:03.369Z,20.50
2022-10-29T11:17:39.339Z,20.53
2022-10-29T11:20:16.045Z,20.55
2022-10-29T11:23:04.284Z,20.76
2022-10-29T11:25:43.019Z,20.79
2022-10-29T11:28:29.283Z,20.80
2022-10-29T11:31:05.071Z,20.92
2022-10-29T11:33:48.117Z,20.88
2022-10-29T11:36:21.572Z,21.08
2022-10-29T11:39:03.907Z,20.97
2022-10-29T11:41:44.037Z,20.80
2022-10-29T11:44:13.367Z,21.15
2022-10-29T11:47:25.298Z,21.21
2022-10-29T11:50:25.826Z,21.25
2022-10-29T11:53:23.850Z,21.33
2022-10-29T11:56:12.014Z,21.31
2022-10-29T11:58:47.705Z,21.38
2022-10-29T12:01:41.088Z,21.40
2022-10-29T12:04:31.742Z,21.35
2022-10-29T12:07:21.222Z,21.37
2022-10-29T12:10:11.741Z,21.41
2022-10-29T12:12:56.203Z,21.41
2022-10-29T12:15:35.191Z,21.46
2022-10-29T12:18:15.685Z,21.58
2022-10-29T12:21:01.318Z,21.59
2022-10-29T12:23:43.537Z,21.64
2022-10-29T12:26:29.189Z,21.50
2022-10-29T12:29:06.095Z,21.59
2022-10-29T12:31:37.549Z,21.62
2022-10-29T12:34:46.509Z,21.64
2022-10-29T12:37:22.704Z,21.59
2022-10-29T12:40:20.583Z,21.31
2022-10-29T12:42:49.396Z,21.46
2022-10-29T12:45:59.528Z,21.52
2022-10-29T12:48:37.250Z,21.47
2022-10-29T12:51:22.583Z,21.65
2022-10-29T12:54:13.820Z,21.68
2022-10-29T12:56:44.987Z,21.65
2022-10-29T12:59:41.697Z,21.69
2022-10-29T13:02:17.948Z,21.66
2022-10-29T13:05:06.964Z,21.69
2022-10-29T13:07:34.327Z,21.62
2022-10-29T13:10:23.532Z,21.57
2022-10-29T13:12:59.550Z,21.61
2022-10-29T13:15:35.169Z,21.53
2022-10-29T13:18:12.306Z,21.50
2022-10-29T13:20:41.826Z,21.46
2022-10-29T13:23:24.169Z,21.50
2022-10-29T13:25:53.214Z,21.41
2022-10-29T13:28:20.147Z,21.42
2022-10-29T13:30:59.182Z,21.38
2022-10-29T13:33:26.213Z,21.41
2022-10-29T13:35:53.206Z,21.40
2022-10-29T13:38:52.142Z,21.36
2022-10-29T13:41:48.668Z,21.40
2022-10-29T13:44:24.381Z,21.33
2022-10-29T13:47:01.017Z,21.28
2022-10-29T13:49:34.680Z,21.21
2022-10-29T13:52:06.376Z,21.21
2022-10-29T13:54:43.600Z,21.11
2022-10-29T13:57:33.395Z,21.13
2022-10-29T14:00:07.337Z,21.08
2022-10-29T14:02:45.163Z,21.08
2022-10-29T14:05:14.826Z,21.04
2022-10-29T14:07:57.294Z,21.05
2022-10-29T14:13:24.671Z,21.08
2022-10-29T14:16:08.526Z,20.99
2022-10-29T14:18:40.815Z,20.96
2022-10-29T14:21:28.681Z,20.84
2022-10-29T14:23:58.680Z,20.77
2022-10-29T14:26:27.267Z,20.28
2022-10-29T14:28:54.485Z,20.72
2022-10-29T14:31:26.052Z,20.46
2022-10-29T14:34:01.048Z,20.69
2022-10-29T14:36:46.926Z,20.35
2022-10-29T14:39:37.089Z,20.57
2022-10-29T14:42:23.571Z,20.57
2022-10-29T14:44:54.308Z,20.57
2022-10-29T14:47:32.366Z,20.49
2022-10-29T14:50:04.946Z,20.35
2022-10-29T14:52:37.931Z,20.14
2022-10-29T14:55:22.721Z,20.18
2022-10-29T14:58:05.104Z,20.07
2022-10-29T15:00:36.823Z,19.96
2022-10-29T15:03:08.534Z,19.98
2022-10-29T15:05:37.086Z,19.46
2022-10-29T15:08:09.867Z,19.87
2022-10-29T15:10:47.238Z,19.86
2022-10-29T15:13:22.508Z,19.70
2022-10-29T15:16:05.269Z,19.60
2022-10-29T15:18:33.155Z,19.71
2022-10-29T15:21:00.669Z,19.61
2022-10-29T15:23:34.168Z,19.35
2022-10-29T15:26:08.748Z,19.50
2022-10-29T15:28:45.671Z,19.22
2022-10-29T15:31:21.575Z,19.35
2022-10-29T15:33:53.211Z,19.20
2022-10-29T15:36:20.813Z,19.13
2022-10-29T15:38:52.165Z,18.81
2022-10-29T15:41:20.348Z,18.94
2022-10-29T15:43:56.256Z,18.82
2022-10-29T15:46:24.541Z,18.69
2022-10-29T15:48:52.069Z,18.18
2022-10-29T15:51:23.350Z,18.54
2022-10-29T15:53:50.393Z,17.62
2022-10-29T15:56:17.479Z,18.35
2022-10-29T15:58:44.477Z,18.24
2022-10-29T16:01:13.706Z,18.46
2022-10-29T16:03:42.939Z,18.18
2022-10-29T16:06:29.595Z,18.42
2022-10-29T16:08:58.542Z,18.27
2022-10-29T16:11:26.887Z,18.35
2022-10-29T16:13:55.126Z,18.34
2022-10-29T16:16:24.924Z,18.22
2022-10-29T16:18:52.728Z,17.94
2022-10-29T16:21:22.675Z,18.21
2022-10-29T16:23:51.307Z,18.20
2022-10-29T16:26:25.076Z,17.84
2022-10-29T16:28:53.243Z,17.99
2022-10-29T16:31:23.775Z,18.12
2022-10-29T16:33:56.652Z,18.10
2022-10-29T16:36:24.332Z,17.75
2022-10-29T16:38:51.449Z,17.98
2022-10-29T16:41:20.244Z,17.98
2022-10-29T16:43:47.958Z,18.00
2022-10-29T16:46:15.324Z,17.50
2022-10-29T16:48:42.481Z,17.53
2022-10-29T16:51:09.577Z,17.77
2022-10-29T16:53:36.620Z,17.80
2022-10-29T16:56:03.996Z,17.77
2022-10-29T16:58:31.004Z,17.56
2022-10-29T17:01:05.709Z,17.23
2022-10-29T17:03:34.171Z,17.65
2022-10-29T17:06:06.417Z,17.38
2022-10-29T17:08:38.484Z,17.62
2022-10-29T17:11:09.855Z,17.24
2022-10-29T17:13:37.557Z,17.05
2022-10-29T17:16:09.176Z,17.49
2022-10-29T17:18:36.468Z,17.20
2022-10-29T17:21:03.925Z,17.36
2022-10-29T17:23:32.607Z,17.39
2022-10-29T17:26:01.294Z,16.97
2022-10-29T17:28:28.607Z,16.97
2022-10-29T17:30:55.711Z,17.20
2022-10-29T17:33:22.894Z,17.16
2022-10-29T17:35:50.069Z,17.05
2022-10-29T17:38:17.182Z,16.65
2022-10-29T17:40:46.040Z,16.71
2022-10-29T17:43:13.339Z,16.89
2022-10-29T17:45:41.778Z,16.82
2022-10-29T17:48:08.856Z,16.75
2022-10-29T17:50:36.114Z,16.78
2022-10-29T17:53:03.391Z,16.75
2022-10-29T17:55:30.547Z,16.60
2022-10-29T17:57:57.831Z,16.74
2022-10-29T18:00:25.505Z,16.71
2022-10-29T18:02:52.620Z,16.40
2022-10-29T18:05:19.716Z,16.71
2022-10-29T18:07:46.738Z,16.65
2022-10-29T18:10:13.786Z,16.21
2022-10-29T18:12:40.769Z,16.67
2022-10-29T18:15:08.421Z,16.71
2022-10-29T18:17:36.494Z,16.68
2022-10-29T18:20:03.872Z,16.31
2022-10-29T18:22:30.875Z,16.64
2022-10-29T18:24:58.417Z,16.55
2022-10-29T18:27:25.443Z,16.47
2022-10-29T18:29:52.460Z,16.48
2022-10-29T18:32:19.922Z,16.19
2022-10-29T18:34:46.985Z,15.92
2022-10-29T18:37:14.003Z,16.50
2022-10-29T18:39:40.983Z,16.13
2022-10-29T18:42:08.072Z,16.35
2022-10-29T18:44:35.490Z,16.34
2022-10-29T18:47:02.592Z,16.45
2022-10-29T18:49:29.685Z,16.34
2022-10-29T18:51:56.691Z,16.34
2022-10-29T18:54:24.889Z,16.23
2022-10-29T18:56:51.968Z,16.25
2022-10-29T18:59:18.918Z,16.32
2022-10-29T19:01:45.961Z,16.32
2022-10-29T19:04:14.752Z,16.32
2022-10-29T19:06:41.927Z,16.33
2022-10-29T19:09:10.916Z,16.33
2022-10-29T19:11:38.455Z,16.39
2022-10-29T19:14:07.878Z,16.08
2022-10-29T19:16:35.385Z,16.35
2022-10-29T19:19:07.814Z,16.28
2022-10-29T19:21:36.822Z,16.27
2022-10-29T19:24:05.481Z,15.92
2022-10-29T19:26:34.319Z,16.13
2022-10-29T19:29:02.866Z,15.70
2022-10-29T19:31:31.388Z,15.90
2022-10-29T19:34:00.652Z,15.79
2022-10-29T19:36:29.454Z,15.68
2022-10-29T19:38:56.728Z,15.29
2022-10-29T19:41:23.928Z,15.38
2022-10-29T19:43:51.100Z,15.49
2022-10-29T19:46:24.411Z,15.51
2022-10-29T19:48:53.264Z,15.51
2022-10-29T19:51:21.464Z,15.41
2022-10-29T19:53:51.274Z,15.39
2022-10-29T19:56:19.237Z,15.39
2022-10-29T19:58:46.796Z,15.03
2022-10-29T20:01:17.195Z,15.03
2022-10-29T20:03:45.243Z,15.32
2022-10-29T20:06:12.640Z,15.28
2022-10-29T20:08:39.832Z,15.19
2022-10-29T20:11:07.355Z,14.80
2022-10-29T20:13:34.808Z,15.17
2022-10-29T20:16:11.613Z,15.16
2022-10-29T20:18:38.608Z,14.97
2022-10-29T20:23:38.235Z,14.68
2022-10-29T20:26:06.892Z,14.64
2022-10-29T20:28:34.395Z,14.88
2022-10-29T20:31:12.819Z,14.60
2022-10-29T20:33:39.932Z,14.67
2022-10-29T20:36:07.144Z,14.73
2022-10-29T20:38:34.280Z,14.75
2022-10-29T20:41:01.292Z,14.73
2022-10-29T20:43:28.503Z,14.77
2022-10-29T20:46:00.272Z,14.69
2022-10-29T20:48:28.551Z,14.71
2022-10-29T20:50:55.710Z,14.54
2022-10-29T20:53:22.700Z,14.61
2022-10-29T20:55:52.469Z,14.30
2022-10-29T20:58:20.309Z,14.59
2022-10-29T21:00:47.861Z,14.61
2022-10-29T21:03:15.960Z,14.49
2022-10-29T21:05:43.108Z,14.42
2022-10-29T21:08:10.399Z,14.45
2022-10-29T21:10:37.441Z,14.33
2022-10-29T21:13:04.818Z,14.05
2022-10-29T21:15:35.812Z,13.97
2022-10-29T21:18:02.926Z,14.12
2022-10-29T21:20:33.927Z,13.78
2022-10-29T21:23:01.100Z,13.84
2022-10-29T21:25:28.121Z,13.84
2022-10-29T21:27:55.807Z,13.55
2022-10-29T21:30:23.200Z,13.45
2022-10-29T21:32:50.254Z,13.55
2022-10-29T21:35:17.419Z,13.61
2022-10-29T21:37:44.912Z,13.42
2022-10-29T21:40:12.604Z,13.48
2022-10-29T21:42:40.058Z,13.07
2022-10-29T21:45:07.408Z,12.95
2022-10-29T21:47:34.442Z,13.67
2022-10-29T21:50:01.489Z,13.62
2022-10-29T21:52:28.471Z,13.55
2022-10-29T21:54:55.494Z,13.55
2022-10-29T21:57:22.546Z,13.63
2022-10-29T21:59:50.808Z,13.53
2022-10-29T22:02:17.888Z,13.63
2022-10-29T22:04:45.063Z,13.57
2022-10-29T22:07:12.099Z,13.51
2022-10-29T22:09:39.073Z,13.39
2022-10-29T22:12:06.388Z,13.60
2022-10-29T22:14:33.478Z,13.51
2022-10-29T22:17:00.482Z,13.31
2022-10-29T22:19:27.587Z,13.41
2022-10-29T22:21:55.759Z,13.26
2022-10-29T22:24:22.751Z,13.26
2022-10-29T22:26:49.860Z,13.29
2022-10-29T22:29:16.850Z,13.28
2022-10-29T22:31:44.039Z,13.53
2022-10-29T22:34:11.024Z,13.60
2022-10-29T22:36:38.053Z,13.39
2022-10-29T22:39:05.287Z,13.60
2022-10-29T22:41:32.303Z,13.49
2022-10-29T22:43:59.452Z,13.60
2022-10-29T22:46:27.943Z,13.33
2022-10-29T22:48:55.142Z,13.43
2022-10-29T22:51:24.798Z,13.40
2022-10-29T22:53:53.047Z,13.40
2022-10-29T22:56:40.755Z,13.38
2022-10-29T22:59:07.800Z,12.99
2022-10-29T23:01:40.270Z,13.40
2022-10-29T23:04:11.269Z,13.28
2022-10-29T23:06:38.236Z,13.29
2022-10-29T23:09:05.346Z,13.28
2022-10-29T23:11:34.867Z,13.17
2022-10-29T23:14:02.804Z,13.02
2022-10-29T23:16:31.811Z,13.14
2022-10-29T23:19:01.646Z,13.26
2022-10-29T23:21:29.428Z,13.28
2022-10-29T23:23:57.152Z,12.90
2022-10-29T23:26:25.203Z,13.24
2022-10-29T23:28:52.586Z,13.06
2022-10-29T23:31:22.090Z,13.09
2022-10-29T23:33:51.471Z,13.18
2022-10-29T23:36:20.723Z,12.55
2022-10-29T23:38:47.805Z,13.16
2022-10-29T23:41:14.811Z,13.15
2022-10-29T23:43:41.883Z,13.10
2022-10-29T23:46:08.970Z,13.01
2022-10-29T23:48:35.930Z,12.83
2022-10-29T23:51:03.016Z,12.90
2022-10-29T23:53:30.004Z,12.80
2022-10-29T23:55:57.079Z,13.15
2022-10-29T23:58:24.371Z,13.16
